createdAt,value
2022-09-11T00:00:42.012Z,2.10
2022-09-11T00:03:08.964Z,2.17
2022-09-11T00:05:40.052Z,1.83
2022-09-11T00:08:08.236Z,1.70
2022-09-11T00:10:40.343Z,1.60
2022-09-11T00:13:08.083Z,1.88
2022-09-11T00:15:43.436Z,2.30
2022-09-11T00:18:17.270Z,1.98
2022-09-11T00:20:52.867Z,2.30
2022-09-11T00:23:20.649Z,2.22
2022-09-11T00:25:47.816Z,2.28
2022-09-11T00:28:16.986Z,1.83
2022-09-11T00:30:45.021Z,2.30
2022-09-11T00:33:12.709Z,1.70
2022-09-11T00:35:40.476Z,2.13
2022-09-11T00:38:17.033Z,1.75
2022-09-11T00:40:47.689Z,1.90
2022-09-11T00:43:16.767Z,2.38
2022-09-11T00:45:44.974Z,1.98
2022-09-11T00:48:14.845Z,1.95
2022-09-11T00:50:43.771Z,2.35
2022-09-11T00:53:11.598Z,2.10
2022-09-11T00:55:41.853Z,2.10
2022-09-11T00:58:15.338Z,2.20
2022-09-11T01:00:45.147Z,2.38
2022-09-11T01:03:11.865Z,2.15
2022-09-11T01:05:41.360Z,2.35
2022-09-11T01:08:08.073Z,2.33
2022-09-11T01:10:59.693Z,1.63
2022-09-11T01:13:33.099Z,2.08
2022-09-11T01:16:16.951Z,1.58
2022-09-11T01:18:55.733Z,2.20
2022-09-11T01:21:32.471Z,1.83
2022-09-11T01:24:15.827Z,2.50
2022-09-11T01:27:01.942Z,2.22
2022-09-11T01:29:49.940Z,1.95
2022-09-11T01:32:21.035Z,2.30
2022-09-11T01:35:02.191Z,2.67
2022-09-11T01:37:41.678Z,2.58
2022-09-11T01:40:23.684Z,1.95
2022-09-11T01:42:52.753Z,2.30
2022-09-11T01:45:20.628Z,2.38
2022-09-11T01:47:49.546Z,2.47
2022-09-11T01:50:19.228Z,2.63
2022-09-11T01:53:00.776Z,2.33
2022-09-11T01:55:43.671Z,2.53
2022-09-11T01:58:26.480Z,2.70
2022-09-11T02:01:03.481Z,2.30
2022-09-11T02:03:37.157Z,2.20
2022-09-11T02:06:13.935Z,1.92
2022-09-11T02:08:51.595Z,2.42
2022-09-11T02:11:22.851Z,2.53
2022-09-11T02:13:50.031Z,2.78
2022-09-11T02:16:20.090Z,2.83
2022-09-11T02:19:01.061Z,2.67
2022-09-11T02:21:28.127Z,2.55
2022-09-11T02:23:55.620Z,3.35
2022-09-11T02:26:24.355Z,3.05
2022-09-11T02:28:53.153Z,3.40
2022-09-11T02:31:20.473Z,3.22
2022-09-11T02:33:48.024Z,3.50
2022-09-11T02:36:36.132Z,3.40
2022-09-11T02:39:47.500Z,3.65
2022-09-11T02:42:29.743Z,3.13
2022-09-11T02:45:04.178Z,4.05
2022-09-11T02:48:02.293Z,4.30
2022-09-11T02:50:43.547Z,4.47
2022-09-11T02:53:24.555Z,4.97
2022-09-11T02:56:13.423Z,4.80
2022-09-11T02:58:47.307Z,4.78
2022-09-11T03:01:14.527Z,4.93
2022-09-11T03:03:46.422Z,5.38
2022-09-11T03:06:19.651Z,5.95
2022-09-11T03:08:46.559Z,5.45
2022-09-11T03:11:15.441Z,6.22
2022-09-11T03:13:44.773Z,5.80
2022-09-11T03:16:13.816Z,6.15
2022-09-11T03:18:40.692Z,6.57
2022-09-11T03:21:08.401Z,6.35
2022-09-11T03:23:35.299Z,7.47
2022-09-11T03:26:01.943Z,7.10
2022-09-11T03:28:31.102Z,6.75
2022-09-11T03:30:59.414Z,7.00
2022-09-11T03:33:26.636Z,7.38
2022-09-11T03:35:53.383Z,6.90
2022-09-11T03:38:21.039Z,5.60
2022-09-11T03:40:47.857Z,6.88
2022-09-11T03:43:16.715Z,6.95
2022-09-11T03:45:44.922Z,6.80
2022-09-11T03:48:11.875Z,7.13
2022-09-11T03:50:38.594Z,7.20
2022-09-11T03:53:05.231Z,7.13
2022-09-11T03:55:31.960Z,7.47
2022-09-11T03:57:59.871Z,7.45
2022-09-11T04:00:26.788Z,6.97
2022-09-11T04:02:56.755Z,6.85
2022-09-11T04:05:37.744Z,7.18
2022-09-11T04:08:06.442Z,6.65
2022-09-11T04:10:34.889Z,6.10
2022-09-11T04:13:02.573Z,7.05
2022-09-11T04:15:29.386Z,6.30
2022-09-11T04:17:56.775Z,6.47
2022-09-11T04:20:23.444Z,7.30
2022-09-11T04:22:50.336Z,8.38
2022-09-11T04:25:17.025Z,7.70
2022-09-11T04:27:43.645Z,7.93
2022-09-11T04:30:14.410Z,7.68
2022-09-11T04:32:41.392Z,7.15
2022-09-11T04:35:08.570Z,7.90
2022-09-11T04:37:42.987Z,7.15
2022-09-11T04:40:10.077Z,8.15
2022-09-11T04:42:37.253Z,7.22
2022-09-11T04:45:04.681Z,7.85
2022-09-11T04:47:32.617Z,7.45
2022-09-11T04:49:59.301Z,8.00
2022-09-11T04:52:26.016Z,8.20
2022-09-11T04:54:52.750Z,8.35
2022-09-11T04:57:19.691Z,8.73
2022-09-11T04:59:48.011Z,8.23
2022-09-11T05:02:15.235Z,8.35
2022-09-11T05:04:45.380Z,9.05
2022-09-11T05:07:14.489Z,9.13
2022-09-11T05:09:43.985Z,9.23
2022-09-11T05:12:11.160Z,9.05
2022-09-11T05:14:38.049Z,8.93
2022-09-11T05:17:06.191Z,8.23
2022-09-11T05:19:36.887Z,8.52
2022-09-11T05:22:04.458Z,8.45
2022-09-11T05:24:32.086Z,8.40
2022-09-11T05:27:02.203Z,8.80
2022-09-11T05:29:32.470Z,7.75
2022-09-11T05:32:08.296Z,8.25
2022-09-11T05:34:35.033Z,9.15
2022-09-11T05:37:02.402Z,8.57
2022-09-11T05:39:32.465Z,8.07
2022-09-11T05:42:01.516Z,8.10
2022-09-11T05:44:32.427Z,8.13
2022-09-11T05:47:00.063Z,8.30
2022-09-11T05:49:26.961Z,8.43
2022-09-11T05:51:54.094Z,9.07
2022-09-11T05:54:20.870Z,8.50
2022-09-11T05:56:47.852Z,8.38
2022-09-11T05:59:21.431Z,8.85
2022-09-11T06:01:50.403Z,8.23
2022-09-11T06:04:30.530Z,8.48
2022-09-11T06:06:58.728Z,8.52
2022-09-11T06:09:27.184Z,8.50
2022-09-11T06:11:53.922Z,7.93
2022-09-11T06:14:21.611Z,8.20
2022-09-11T06:16:50.016Z,8.20
2022-09-11T06:19:17.002Z,7.63
2022-09-11T06:21:45.114Z,8.38
2022-09-11T06:24:21.845Z,8.07
2022-09-11T06:26:49.919Z,7.97
2022-09-11T06:29:17.224Z,8.30
2022-09-11T06:31:51.341Z,8.98
2022-09-11T06:34:21.676Z,8.18
2022-09-11T06:36:51.809Z,7.88
2022-09-11T06:39:20.539Z,8.05
2022-09-11T06:41:47.451Z,8.57
2022-09-11T06:44:15.378Z,8.80
2022-09-11T06:46:42.911Z,9.13
2022-09-11T06:49:10.899Z,8.10
2022-09-11T06:51:59.471Z,8.98
2022-09-11T06:54:26.397Z,8.88
2022-09-11T06:56:54.402Z,8.25
2022-09-11T06:59:23.952Z,8.77
2022-09-11T07:01:51.836Z,9.20
2022-09-11T07:04:18.706Z,9.13
2022-09-11T07:06:47.322Z,9.23
2022-09-11T07:09:15.069Z,9.18
2022-09-11T07:14:14.201Z,8.25
2022-09-11T07:16:43.841Z,9.27
2022-09-11T07:19:12.792Z,8.52
2022-09-11T07:21:40.211Z,7.80
2022-09-11T07:24:07.599Z,8.32
2022-09-11T07:26:38.585Z,8.57
2022-09-11T07:29:12.933Z,8.30
2022-09-11T07:31:39.715Z,8.45
2022-09-11T07:34:06.709Z,7.72
2022-09-11T07:36:34.833Z,8.27
2022-09-11T07:39:04.676Z,7.88
2022-09-11T07:41:37.180Z,7.97
2022-09-11T07:44:10.840Z,7.65
2022-09-11T07:46:41.430Z,7.13
2022-09-11T07:49:10.294Z,7.82
2022-09-11T07:51:39.579Z,7.00
2022-09-11T07:54:08.182Z,6.75
2022-09-11T07:56:36.735Z,6.47
2022-09-11T07:59:09.107Z,6.05
2022-09-11T08:01:38.916Z,6.60
2022-09-11T08:04:08.059Z,6.80
2022-09-11T08:06:37.021Z,6.88
2022-09-11T08:09:14.843Z,7.10
2022-09-11T08:11:50.874Z,7.40
2022-09-11T08:14:19.448Z,7.30
2022-09-11T08:16:48.779Z,6.60
2022-09-11T08:19:19.087Z,6.70
2022-09-11T08:21:50.598Z,6.50
2022-09-11T08:24:20.310Z,6.47
2022-09-11T08:26:49.227Z,6.80
2022-09-11T08:29:17.402Z,6.15
2022-09-11T08:31:45.796Z,6.32
2022-09-11T08:34:13.762Z,8.50
2022-09-11T08:36:40.501Z,7.15
2022-09-11T08:39:09.176Z,7.72
2022-09-11T08:41:49.284Z,7.30
2022-09-11T08:44:22.554Z,7.90
2022-09-11T08:46:57.956Z,6.75
2022-09-11T08:49:27.449Z,6.90
2022-09-11T08:52:00.922Z,7.90
2022-09-11T08:54:33.794Z,7.70
2022-09-11T08:57:16.833Z,6.40
2022-09-11T08:59:59.053Z,7.05
2022-09-11T09:02:41.787Z,6.38
2022-09-11T09:05:14.586Z,6.57
2022-09-11T09:07:54.020Z,6.68
2022-09-11T09:10:31.204Z,6.22
2022-09-11T09:13:23.587Z,7.47
2022-09-11T09:16:16.567Z,6.55
2022-09-11T09:18:46.899Z,7.13
2022-09-11T09:21:52.982Z,7.43
2022-09-11T09:24:20.606Z,5.93
2022-09-11T09:26:56.308Z,5.27
2022-09-11T09:32:06.571Z,5.75
2022-09-11T09:34:38.043Z,4.65
2022-09-11T09:37:17.607Z,5.22
2022-09-11T09:39:45.244Z,5.25
2022-09-11T09:42:21.263Z,5.38
2022-09-11T09:45:03.515Z,5.40
2022-09-11T09:47:30.188Z,5.95
2022-09-11T09:50:00.098Z,6.78
2022-09-11T09:52:32.877Z,5.85
2022-09-11T09:55:01.875Z,5.28
2022-09-11T09:57:37.786Z,4.75
2022-09-11T10:00:10.425Z,4.82
2022-09-11T10:02:42.953Z,5.85
2022-09-11T10:05:13.588Z,5.03
2022-09-11T10:07:51.960Z,4.82
2022-09-11T10:10:29.796Z,4.68
2022-09-11T10:13:18.039Z,5.07
2022-09-11T10:15:48.430Z,5.05
2022-09-11T10:18:30.727Z,6.15
2022-09-11T10:21:12.569Z,5.10
2022-09-11T10:23:47.183Z,6.90
2022-09-11T10:26:21.136Z,6.65
2022-09-11T10:28:48.151Z,6.20
2022-09-11T10:31:16.722Z,6.53
2022-09-11T10:33:50.120Z,6.95
2022-09-11T10:36:22.808Z,7.18
2022-09-11T10:38:50.240Z,7.70
2022-09-11T10:41:28.277Z,7.80
2022-09-11T10:43:56.273Z,8.38
2022-09-11T10:46:40.724Z,8.02
2022-09-11T10:49:23.941Z,7.50
2022-09-11T10:52:07.108Z,8.77
2022-09-11T10:55:02.286Z,7.88
2022-09-11T10:57:38.689Z,8.27
2022-09-11T11:00:11.339Z,8.25
2022-09-11T11:02:44.326Z,6.88
2022-09-11T11:05:27.192Z,9.43
2022-09-11T11:07:53.737Z,9.52
2022-09-11T11:10:33.453Z,8.73
2022-09-11T11:13:06.629Z,7.05
2022-09-11T11:15:44.886Z,8.25
2022-09-11T11:18:31.484Z,7.60
2022-09-11T11:21:43.139Z,6.50
2022-09-11T11:24:17.812Z,6.57
2022-09-11T11:27:11.594Z,6.05
2022-09-11T11:30:03.236Z,5.15
2022-09-11T11:32:39.482Z,5.18
2022-09-11T11:35:54.083Z,5.28
2022-09-11T11:38:33.411Z,5.72
2022-09-11T11:41:07.936Z,6.05
2022-09-11T11:43:38.698Z,5.88
2022-09-11T11:46:13.535Z,6.47
2022-09-11T11:48:45.825Z,6.88
2022-09-11T11:51:17.924Z,6.15
2022-09-11T11:53:55.515Z,6.25
2022-09-11T11:56:38.301Z,6.65
2022-09-11T11:59:16.032Z,6.70
2022-09-11T12:01:45.490Z,5.97
2022-09-11T12:04:42.743Z,4.82
2022-09-11T12:07:18.435Z,4.85
2022-09-11T12:09:47.343Z,4.93
2022-09-11T12:12:16.612Z,5.10
2022-09-11T12:14:51.816Z,5.43
2022-09-11T12:17:28.283Z,4.55
2022-09-11T12:20:10.677Z,6.78
2022-09-11T12:22:47.267Z,5.38
2022-09-11T12:25:19.867Z,4.90
2022-09-11T12:27:46.473Z,5.45
2022-09-11T12:30:18.925Z,4.80
2022-09-11T12:32:57.119Z,6.32
2022-09-11T12:35:42.881Z,6.53
2022-09-11T12:38:09.474Z,4.75
2022-09-11T12:40:40.318Z,5.75
2022-09-11T12:43:31.844Z,6.20
2022-09-11T12:45:58.762Z,7.30
2022-09-11T12:48:56.201Z,7.72
2022-09-11T12:51:43.200Z,8.80
2022-09-11T12:54:16.499Z,6.95
2022-09-11T12:56:47.884Z,6.35
2022-09-11T12:59:24.140Z,5.78
2022-09-11T13:01:51.552Z,6.78
2022-09-11T13:04:22.632Z,6.55
2022-09-11T13:06:58.853Z,6.95
2022-09-11T13:09:28.860Z,5.95
2022-09-11T13:12:25.097Z,5.53
2022-09-11T13:14:59.608Z,5.45
2022-09-11T13:17:33.201Z,5.82
2022-09-11T13:20:13.830Z,6.20
2022-09-11T13:22:43.221Z,5.50
2022-09-11T13:25:16.991Z,5.40
2022-09-11T13:27:49.231Z,5.35
2022-09-11T13:30:19.342Z,6.05
2022-09-11T13:32:52.179Z,5.28
2022-09-11T13:35:27.326Z,5.88
2022-09-11T13:38:06.402Z,5.13
2022-09-11T13:40:41.449Z,5.80
2022-09-11T13:43:15.043Z,5.55
2022-09-11T13:45:45.121Z,4.97
2022-09-11T13:48:24.378Z,5.07
2022-09-11T13:50:51.767Z,5.13
2022-09-11T13:53:19.581Z,6.00
2022-09-11T13:55:48.338Z,7.05
2022-09-11T13:58:36.882Z,6.25
2022-09-11T14:01:21.991Z,6.20
2022-09-11T14:03:54.641Z,5.65
2022-09-11T14:06:21.642Z,5.75
2022-09-11T14:09:01.872Z,5.85
2022-09-11T14:11:32.613Z,5.60
2022-09-11T14:14:11.892Z,5.07
2022-09-11T14:16:47.172Z,4.95
2022-09-11T14:19:21.851Z,5.90
2022-09-11T14:21:50.155Z,5.10
2022-09-11T14:24:34.443Z,5.68
2022-09-11T14:27:04.343Z,5.70
2022-09-11T14:29:32.798Z,6.50
2022-09-11T14:32:36.958Z,6.18
2022-09-11T14:35:08.955Z,6.07
2022-09-11T14:37:40.374Z,5.38
2022-09-11T14:40:14.245Z,5.45
2022-09-11T14:42:42.186Z,5.38
2022-09-11T14:45:20.162Z,4.38
2022-09-11T14:47:46.867Z,4.45
2022-09-11T14:50:13.962Z,4.78
2022-09-11T14:52:42.556Z,4.20
2022-09-11T14:55:16.945Z,4.60
2022-09-11T14:57:46.606Z,4.60
2022-09-11T15:00:14.749Z,4.63
2022-09-11T15:02:42.222Z,4.95
2022-09-11T15:05:17.126Z,4.25
2022-09-11T15:07:46.955Z,3.83
2022-09-11T15:10:14.285Z,4.57
2022-09-11T15:12:40.948Z,4.22
2022-09-11T15:15:08.267Z,5.25
2022-09-11T15:17:35.324Z,5.40
2022-09-11T15:20:04.783Z,4.32
2022-09-11T15:22:31.588Z,4.93
2022-09-11T15:24:59.108Z,4.95
2022-09-11T15:27:26.170Z,4.45
2022-09-11T15:29:53.496Z,3.80
2022-09-11T15:32:21.316Z,4.30
2022-09-11T15:34:48.201Z,4.18
2022-09-11T15:37:16.979Z,4.50
2022-09-11T15:39:43.994Z,4.18
2022-09-11T15:42:11.396Z,4.47
2022-09-11T15:44:38.090Z,4.30
2022-09-11T15:47:04.968Z,4.45
2022-09-11T15:49:31.824Z,4.05
2022-09-11T15:51:59.024Z,4.38
2022-09-11T15:54:26.286Z,4.10
2022-09-11T15:56:53.523Z,4.63
2022-09-11T15:59:20.518Z,4.00
2022-09-11T16:01:48.101Z,4.57
2022-09-11T16:04:18.765Z,4.90
2022-09-11T16:06:46.387Z,5.28
2022-09-11T16:09:24.790Z,4.70
2022-09-11T16:11:54.560Z,5.03
2022-09-11T16:14:23.848Z,4.95
2022-09-11T16:16:51.889Z,4.43
2022-09-11T16:19:21.495Z,4.60
2022-09-11T16:21:48.906Z,4.68
2022-09-11T16:24:16.009Z,3.95
2022-09-11T16:26:44.281Z,4.05
2022-09-11T16:29:12.563Z,4.53
2022-09-11T16:31:39.722Z,4.38
2022-09-11T16:34:07.069Z,3.78
2022-09-11T16:36:40.445Z,5.60
2022-09-11T16:39:13.054Z,4.25
2022-09-11T16:41:40.220Z,4.15
2022-09-11T16:44:08.465Z,4.22
2022-09-11T16:46:35.342Z,4.05
2022-09-11T16:49:02.346Z,4.55
2022-09-11T16:51:29.855Z,4.45
2022-09-11T16:53:57.063Z,4.35
2022-09-11T16:56:24.572Z,3.70
2022-09-11T16:58:51.482Z,4.43
2022-09-11T17:01:22.813Z,4.10
2022-09-11T17:03:51.814Z,4.30
2022-09-11T17:06:21.811Z,4.68
2022-09-11T17:08:51.740Z,4.45
2022-09-11T17:11:20.556Z,4.78
2022-09-11T17:13:48.354Z,4.88
2022-09-11T17:16:35.017Z,4.60
2022-09-11T17:19:02.193Z,4.53
2022-09-11T17:21:29.793Z,4.35
2022-09-11T17:23:57.669Z,4.57
2022-09-11T17:26:24.732Z,5.25
2022-09-11T17:28:51.901Z,5.40
2022-09-11T17:31:19.582Z,5.15
2022-09-11T17:33:47.041Z,4.65
2022-09-11T17:36:17.223Z,4.88
2022-09-11T17:38:45.520Z,4.63
2022-09-11T17:41:12.823Z,4.53
2022-09-11T17:43:39.889Z,5.03
2022-09-11T17:46:15.175Z,5.10
2022-09-11T17:48:42.564Z,5.30
2022-09-11T17:51:11.377Z,5.32
2022-09-11T17:53:41.520Z,5.00
2022-09-11T17:56:14.410Z,5.13
2022-09-11T17:58:42.791Z,4.68
2022-09-11T18:01:12.567Z,5.47
2022-09-11T18:03:41.537Z,5.30
2022-09-11T18:06:18.707Z,5.28
2022-09-11T18:08:46.246Z,4.88
2022-09-11T18:11:13.035Z,5.38
2022-09-11T18:13:39.884Z,5.43
2022-09-11T18:16:10.880Z,6.15
2022-09-11T18:18:39.487Z,5.53
2022-09-11T18:21:09.024Z,4.82
2022-09-11T18:23:40.570Z,5.20
2022-09-11T18:26:07.429Z,5.03
2022-09-11T18:28:34.465Z,5.45
2022-09-11T18:31:02.234Z,4.90
2022-09-11T18:33:28.899Z,5.57
2022-09-11T18:35:55.608Z,6.03
2022-09-11T18:38:22.359Z,5.70
2022-09-11T18:40:54.536Z,5.85
2022-09-11T18:43:21.260Z,4.90
2022-09-11T18:45:48.033Z,5.22
2022-09-11T18:48:15.222Z,5.57
2022-09-11T18:50:41.846Z,5.50
2022-09-11T18:53:09.190Z,5.18
2022-09-11T18:55:36.057Z,6.25
2022-09-11T18:58:05.618Z,6.32
2022-09-11T19:00:32.501Z,6.47
2022-09-11T19:03:00.237Z,7.47
2022-09-11T19:05:27.040Z,8.10
2022-09-11T19:07:55.269Z,8.52
2022-09-11T19:10:21.960Z,7.47
2022-09-11T19:12:49.189Z,6.60
2022-09-11T19:15:16.956Z,6.82
2022-09-11T19:17:47.753Z,6.50
2022-09-11T19:20:15.626Z,6.07
2022-09-11T19:22:42.299Z,6.57
2022-09-11T19:25:10.080Z,7.07
2022-09-11T19:27:37.336Z,6.97
2022-09-11T19:30:06.402Z,6.82
2022-09-11T19:32:33.442Z,6.40
2022-09-11T19:35:00.535Z,7.28
2022-09-11T19:37:28.417Z,7.55
2022-09-11T19:39:57.180Z,6.68
2022-09-11T19:42:23.974Z,6.78
2022-09-11T19:44:54.329Z,6.82
2022-09-11T19:47:25.000Z,7.53
2022-09-11T19:49:51.812Z,6.53
2022-09-11T19:52:18.664Z,7.00
2022-09-11T19:54:45.269Z,6.93
2022-09-11T19:57:11.935Z,7.10
2022-09-11T19:59:38.927Z,7.20
2022-09-11T20:02:05.816Z,6.47
2022-09-11T20:04:32.760Z,7.05
2022-09-11T20:07:00.405Z,7.00
2022-09-11T20:09:31.463Z,6.18
2022-09-11T20:12:00.490Z,7.05
2022-09-11T20:14:27.965Z,6.82
2022-09-11T20:16:54.723Z,7.18
2022-09-11T20:19:21.402Z,7.35
2022-09-11T20:21:48.343Z,6.85
2022-09-11T20:24:15.375Z,7.03
2022-09-11T20:26:42.230Z,6.45
2022-09-11T20:29:13.067Z,6.90
2022-09-11T20:31:46.829Z,7.13
2022-09-11T20:34:18.797Z,7.05
2022-09-11T20:36:46.333Z,7.40
2022-09-11T20:39:13.895Z,7.95
2022-09-11T20:41:40.740Z,7.18
2022-09-11T20:44:07.348Z,6.97
2022-09-11T20:46:34.063Z,7.53
2022-09-11T20:49:00.934Z,8.57
2022-09-11T20:51:27.988Z,8.23
2022-09-11T20:53:55.969Z,8.15
2022-09-11T20:56:23.931Z,8.82
2022-09-11T20:58:51.698Z,7.93
2022-09-11T21:01:22.517Z,7.80
2022-09-11T21:03:51.798Z,8.30
2022-09-11T21:06:25.355Z,8.23
2022-09-11T21:08:55.429Z,8.98
2022-09-11T21:11:24.087Z,8.90
2022-09-11T21:13:53.500Z,8.75
2022-09-11T21:16:25.169Z,8.73
2022-09-11T21:18:54.415Z,8.27
2022-09-11T21:21:51.710Z,8.10
2022-09-11T21:24:20.598Z,7.80
2022-09-11T21:26:54.613Z,8.15
2022-09-11T21:29:21.414Z,8.25
2022-09-11T21:31:48.319Z,8.15
2022-09-11T21:34:15.174Z,8.05
2022-09-11T21:36:42.669Z,8.10
2022-09-11T21:39:09.562Z,7.82
2022-09-11T21:41:36.653Z,8.52
2022-09-11T21:44:03.746Z,8.63
2022-09-11T21:46:30.971Z,9.55
2022-09-11T21:48:57.903Z,9.55
2022-09-11T21:51:24.731Z,9.15
2022-09-11T21:53:56.332Z,8.73
2022-09-11T21:56:30.289Z,9.17
2022-09-11T21:58:57.308Z,8.27
2022-09-11T22:01:25.139Z,8.63
2022-09-11T22:03:52.100Z,7.90
2022-09-11T22:06:20.392Z,7.78
2022-09-11T22:08:47.490Z,7.88
2022-09-11T22:11:14.604Z,7.65
2022-09-11T22:13:41.331Z,8.30
2022-09-11T22:16:11.037Z,8.48
2022-09-11T22:18:38.597Z,8.23
2022-09-11T22:21:05.750Z,8.73
2022-09-11T22:23:32.686Z,7.93
2022-09-11T22:26:06.736Z,8.23
2022-09-11T22:28:33.355Z,8.68
2022-09-11T22:31:00.002Z,8.02
2022-09-11T22:33:26.808Z,8.60
2022-09-11T22:35:53.511Z,8.15
2022-09-11T22:38:20.227Z,9.32
2022-09-11T22:40:52.435Z,9.38
2022-09-11T22:43:19.553Z,9.13
2022-09-11T22:45:50.880Z,8.52
2022-09-11T22:48:17.862Z,8.57
2022-09-11T22:50:44.824Z,9.73
2022-09-11T22:53:11.413Z,8.48
2022-09-11T22:55:38.506Z,8.30
2022-09-11T22:58:05.117Z,8.05
2022-09-11T23:00:31.740Z,8.88
2022-09-11T23:02:58.752Z,7.97
2022-09-11T23:05:44.357Z,8.65
2022-09-11T23:08:11.389Z,9.27
2022-09-11T23:10:44.749Z,9.30
2022-09-11T23:13:12.110Z,9.40
2022-09-11T23:15:38.875Z,9.77
2022-09-11T23:18:05.583Z,10.80
2022-09-11T23:20:32.689Z,10.98
2022-09-11T23:22:59.358Z,10.50
2022-09-11T23:25:26.516Z,10.55
2022-09-11T23:27:53.746Z,10.82
2022-09-11T23:30:20.660Z,11.90
2022-09-11T23:32:47.350Z,11.25
2022-09-11T23:35:14.336Z,10.88
2022-09-11T23:37:44.799Z,10.35
2022-09-11T23:40:12.114Z,10.30
2022-09-11T23:42:38.857Z,10.65
2022-09-11T23:45:07.668Z,10.20
2022-09-11T23:47:34.374Z,10.57
2022-09-11T23:50:02.177Z,10.52
2022-09-11T23:52:29.319Z,11.40
2022-09-11T23:54:55.999Z,10.38
2022-09-11T23:57:22.651Z,10.43
2022-09-11T23:59:49.238Z,10.80
